Time;durP1;ratioP1;P1;durP2;ratioP2;P2;SDS_P1;SDS_P2;PMS_P1;PMS_P2;Temp;Humidity;BMP_temperature;BMP_pressure;BME280_temperature;BME280_humidity;BME280_pressure;Samples;Min_cycle;Max_cycle;Signal;HPM_P1;HPM_P2
2020/12/10 00:00:47;;;;;;;73.45;34.75;;;4.00;91.10;;;;;;2083397;28;20014;-72
2020/12/10 00:01:50;;;;;;;75.43;34.08;;;4.00;91.10;;;;;;2064697;28;20406;-72
2020/12/10 00:02:51;;;;;;;75.10;34.67;;;3.90;91.10;;;;;;2065252;28;20089;-71
2020/12/10 00:03:51;;;;;;;73.95;34.42;;;4.00;91.20;;;;;;2073943;28;20440;-71
2020/12/10 00:04:52;;;;;;;70.25;33.53;;;3.90;91.20;;;;;;2072673;28;20069;-71
2020/12/10 00:05:54;;;;;;;72.22;34.53;;;4.00;91.20;;;;;;2064864;28;20030;-71
2020/12/10 00:06:54;;;;;;;72.53;33.85;;;3.90;91.30;;;;;;2056458;28;20491;-71
2020/12/10 00:07:57;;;;;;;79.40;35.88;;;3.90;91.20;;;;;;2073192;28;20020;-71
2020/12/10 00:08:57;;;;;;;72.53;33.45;;;3.90;91.20;;;;;;2073068;28;20042;-71
2020/12/10 00:09:58;;;;;;;72.85;34.13;;;4.00;91.20;;;;;;2072708;28;20030;-72
2020/12/10 00:10:59;;;;;;;75.50;34.85;;;3.90;91.30;;;;;;2073596;28;20026;-71
2020/12/10 00:12:03;;;;;;;74.00;35.35;;;4.00;91.30;;;;;;2073022;28;20019;-71
2020/12/10 00:13:04;;;;;;;74.07;34.95;;;4.00;91.20;;;;;;2072649;28;20014;-71
2020/12/10 00:14:05;;;;;;;75.03;33.90;;;4.00;91.10;;;;;;2073443;28;20456;-71
2020/12/10 00:15:07;;;;;;;74.95;34.33;;;3.90;91.20;;;;;;2080349;28;20034;-71
2020/12/10 00:16:11;;;;;;;73.43;33.90;;;3.90;91.10;;;;;;2081021;28;20049;-72
2020/12/10 00:17:12;;;;;;;79.10;35.03;;;3.90;91.10;;;;;;2073657;28;20030;-72
2020/12/10 00:18:13;;;;;;;78.68;35.42;;;3.90;91.20;;;;;;2073885;28;20048;-71
2020/12/10 00:19:14;;;;;;;74.22;34.38;;;3.90;91.20;;;;;;2077192;28;20022;-72
2020/12/10 00:20:15;;;;;;;74.00;33.97;;;3.90;91.10;;;;;;2076644;28;20029;-72
2020/12/10 00:21:20;;;;;;;74.68;34.38;;;3.90;91.20;;;;;;2078359;28;20147;-72
2020/12/10 00:22:24;;;;;;;76.78;33.97;;;3.90;91.20;;;;;;2076825;28;20018;-71
2020/12/10 00:23:25;;;;;;;75.20;34.20;;;3.90;91.20;;;;;;2074547;28;20044;-72
2020/12/10 00:24:26;;;;;;;76.15;34.72;;;3.90;91.20;;;;;;2073327;28;20030;-71
2020/12/10 00:25:27;;;;;;;71.20;33.88;;;3.90;91.30;;;;;;2073759;28;20064;-71
2020/12/10 00:26:27;;;;;;;72.55;33.13;;;3.90;91.30;;;;;;2073694;28;20049;-72
2020/12/10 00:27:28;;;;;;;69.88;32.97;;;3.80;91.20;;;;;;2073712;28;20041;-72
2020/12/10 00:28:29;;;;;;;75.68;34.58;;;3.90;91.30;;;;;;2073676;28;20105;-71
2020/12/10 00:29:30;;;;;;;74.72;33.83;;;3.90;91.40;;;;;;2073196;28;20077;-71
2020/12/10 00:30:31;;;;;;;72.55;33.78;;;3.90;91.40;;;;;;2073255;28;20416;-70
2020/12/10 00:31:32;;;;;;;74.05;33.15;;;3.90;91.30;;;;;;2081202;28;20067;-71
2020/12/10 00:32:32;;;;;;;74.28;34.42;;;3.90;91.40;;;;;;2080978;28;20029;-71
2020/12/10 00:33:33;;;;;;;70.75;33.65;;;3.90;91.50;;;;;;2073762;28;20032;-71
2020/12/10 00:34:34;;;;;;;71.55;33.30;;;3.80;91.60;;;;;;2073520;28;20022;-72
2020/12/10 00:35:35;;;;;;;72.68;33.50;;;3.90;91.60;;;;;;2073210;28;20343;-72
2020/12/10 00:36:36;;;;;;;77.88;34.35;;;3.90;91.50;;;;;;2073886;28;20033;-72
2020/12/10 00:37:37;;;;;;;74.38;34.42;;;3.90;91.50;;;;;;2073658;28;20026;-71
2020/12/10 00:38:38;;;;;;;73.30;34.13;;;3.90;91.40;;;;;;2073309;28;20112;-71
2020/12/10 00:39:39;;;;;;;72.95;34.20;;;3.90;91.40;;;;;;2081148;28;20025;-73
2020/12/10 00:40:40;;;;;;;74.25;34.42;;;3.80;91.40;;;;;;2081274;28;20025;-72
2020/12/10 00:41:40;;;;;;;71.95;33.50;;;3.90;91.50;;;;;;2072724;28;20054;-72
2020/12/10 00:42:41;;;;;;;77.57;34.83;;;3.90;91.40;;;;;;2072774;28;20030;-73
2020/12/10 00:43:42;;;;;;;73.57;34.38;;;3.90;91.40;;;;;;2073071;28;20014;-72
2020/12/10 00:44:43;;;;;;;75.25;34.33;;;3.90;91.30;;;;;;2080171;28;20065;-71
2020/12/10 00:45:44;;;;;;;77.20;34.67;;;3.90;91.20;;;;;;2072997;28;20093;-72
2020/12/10 00:46:45;;;;;;;75.85;34.28;;;3.90;91.10;;;;;;2072610;28;20026;-72
2020/12/10 00:47:45;;;;;;;76.97;34.97;;;3.90;91.10;;;;;;2072625;28;20030;-72
2020/12/10 00:48:46;;;;;;;80.22;35.58;;;3.90;91.10;;;;;;2056841;28;20034;-72
2020/12/10 00:49:47;;;;;;;72.03;32.65;;;3.90;91.20;;;;;;2056252;28;20031;-71
2020/12/10 00:50:48;;;;;;;78.15;34.83;;;3.90;91.20;;;;;;2064891;28;20022;-71
2020/12/10 00:51:50;;;;;;;76.18;34.33;;;3.90;91.30;;;;;;2072282;28;20033;-72
2020/12/10 00:52:51;;;;;;;76.75;34.20;;;3.80;91.20;;;;;;2073090;28;20119;-72
2020/12/10 00:53:52;;;;;;;74.60;34.45;;;3.80;91.30;;;;;;2072921;28;20034;-72
2020/12/10 00:54:53;;;;;;;76.68;34.85;;;3.80;91.30;;;;;;2072300;28;20030;-72
2020/12/10 00:55:55;;;;;;;72.63;33.95;;;3.80;91.40;;;;;;2064432;28;20113;-72
2020/12/10 00:56:56;;;;;;;83.57;36.42;;;3.80;91.50;;;;;;2073097;28;20022;-72
2020/12/10 00:57:56;;;;;;;74.05;33.97;;;3.80;91.30;;;;;;2073540;28;20151;-71
2020/12/10 00:58:57;;;;;;;73.45;33.90;;;3.80;91.30;;;;;;2073386;28;20030;-71
2020/12/10 00:59:58;;;;;;;74.72;34.40;;;3.80;91.50;;;;;;2072132;28;20048;-72
2020/12/10 01:00:58;;;;;;;75.18;33.92;;;3.80;91.50;;;;;;2072697;28;20018;-72
2020/12/10 01:01:59;;;;;;;73.28;33.80;;;3.90;91.40;;;;;;2064381;28;20479;-72
2020/12/10 01:03:00;;;;;;;71.65;33.80;;;3.80;91.30;;;;;;2064721;28;20018;-72
2020/12/10 01:04:01;;;;;;;74.57;33.85;;;3.80;91.30;;;;;;2072713;28;20481;-72
2020/12/10 01:05:02;;;;;;;72.93;33.97;;;3.80;91.40;;;;;;2064294;28;20034;-73
2020/12/10 01:06:03;;;;;;;79.70;35.08;;;3.80;91.40;;;;;;2064080;28;20030;-71
2020/12/10 01:07:04;;;;;;;78.05;35.53;;;3.80;91.40;;;;;;2064846;28;20033;-72
2020/12/10 01:08:05;;;;;;;84.95;36.63;;;3.80;91.50;;;;;;2072634;28;20109;-72
2020/12/10 01:09:08;;;;;;;82.10;37.08;;;3.80;91.40;;;;;;2073292;28;20057;-72
2020/12/10 01:10:09;;;;;;;83.57;37.13;;;3.80;91.40;;;;;;2071975;28;20076;-71
2020/12/10 01:11:09;;;;;;;83.75;36.65;;;3.80;91.30;;;;;;2063960;28;20019;-71
2020/12/10 01:12:10;;;;;;;84.15;35.78;;;3.80;91.40;;;;;;2072936;28;20500;-72
2020/12/10 01:13:11;;;;;;;86.80;37.40;;;3.80;91.50;;;;;;2073276;28;20022;-72
2020/12/10 01:14:12;;;;;;;82.55;35.35;;;3.70;91.50;;;;;;2072642;28;20492;-72
2020/12/10 01:15:13;;;;;;;83.82;36.50;;;3.70;91.50;;;;;;2073090;28;20089;-71
2020/12/10 01:16:14;;;;;;;85.57;36.55;;;3.70;91.60;;;;;;2073172;28;20026;-72
2020/12/10 01:17:15;;;;;;;83.22;35.70;;;3.70;91.60;;;;;;2072892;28;20830;-72
2020/12/10 01:18:16;;;;;;;83.95;36.85;;;3.70;91.60;;;;;;2073035;28;20089;-72
2020/12/10 01:19:17;;;;;;;89.15;38.15;;;3.70;91.60;;;;;;2072954;28;20049;-72
2020/12/10 01:20:18;;;;;;;85.43;36.58;;;3.60;91.70;;;;;;2072641;28;20548;-72
2020/12/10 01:21:33;;;;;;;79.47;36.13;;;3.60;92.10;;;;;;2072646;28;20026;-73
2020/12/10 01:22:34;;;;;;;82.28;35.50;;;3.60;91.80;;;;;;2072289;28;20025;-73
2020/12/10 01:23:35;;;;;;;79.75;35.33;;;3.60;91.80;;;;;;2072299;28;20358;-73
2020/12/10 01:24:36;;;;;;;75.10;34.40;;;3.60;91.90;;;;;;2072340;28;20188;-72
2020/12/10 01:25:37;;;;;;;85.63;36.78;;;3.60;91.90;;;;;;2073177;28;20436;-72
2020/12/10 01:26:38;;;;;;;84.40;36.35;;;3.60;92.00;;;;;;2073302;28;20040;-72
2020/12/10 01:27:39;;;;;;;83.60;36.53;;;3.60;92.00;;;;;;2072257;28;20189;-72
2020/12/10 01:28:39;;;;;;;87.15;36.40;;;3.60;92.00;;;;;;2064460;28;20462;-72
2020/12/10 01:29:40;;;;;;;82.80;35.95;;;3.60;91.90;;;;;;2072408;28;20176;-72
2020/12/10 01:30:41;;;;;;;85.70;36.53;;;3.60;91.90;;;;;;2072813;28;20038;-72
2020/12/10 01:31:41;;;;;;;83.70;36.55;;;3.60;92.00;;;;;;2072653;28;20026;-72
2020/12/10 01:32:42;;;;;;;90.32;37.60;;;3.60;92.00;;;;;;2072495;28;20514;-72
2020/12/10 01:33:43;;;;;;;84.32;35.92;;;3.60;91.90;;;;;;2072749;28;20381;-72
2020/12/10 01:34:43;;;;;;;89.60;36.65;;;3.70;91.90;;;;;;2072913;28;20033;-72
2020/12/10 01:35:45;;;;;;;95.25;38.58;;;3.70;91.90;;;;;;2073422;28;20591;-73
2020/12/10 01:36:46;;;;;;;94.25;39.20;;;3.60;91.80;;;;;;2072358;28;20104;-73
2020/12/10 01:37:46;;;;;;;80.80;35.42;;;3.60;91.80;;;;;;2072426;28;20081;-72
2020/12/10 01:38:48;;;;;;;83.70;35.80;;;3.60;91.80;;;;;;2072450;28;20476;-73
2020/12/10 01:39:48;;;;;;;82.85;35.67;;;3.60;91.80;;;;;;2071507;28;20033;-72
2020/12/10 01:40:51;;;;;;;86.65;37.25;;;3.60;91.80;;;;;;2064338;28;20029;-73
2020/12/10 01:41:52;;;;;;;87.95;37.88;;;3.60;91.90;;;;;;2064799;28;20034;-73
2020/12/10 01:42:53;;;;;;;83.22;36.95;;;3.60;92.00;;;;;;2072773;28;20057;-73
2020/12/10 01:44:01;;;;;;;92.43;39.08;;;3.60;92.00;;;;;;2064673;28;20026;-73
2020/12/10 01:45:03;;;;;;;88.53;38.55;;;3.60;92.00;;;;;;2072134;28;20065;-73
2020/12/10 01:46:04;;;;;;;84.93;37.67;;;3.60;92.10;;;;;;2072470;28;20022;-73
2020/12/10 01:47:06;;;;;;;81.82;36.92;;;3.60;92.00;;;;;;2072333;28;20026;-72
2020/12/10 01:48:07;;;;;;;84.25;36.22;;;3.60;92.00;;;;;;2072193;28;20030;-73
2020/12/10 01:49:08;;;;;;;83.97;37.17;;;3.60;92.00;;;;;;2072204;28;20045;-73
2020/12/10 01:50:09;;;;;;;78.97;35.55;;;3.60;92.00;;;;;;2072395;28;20025;-72
2020/12/10 01:51:11;;;;;;;78.10;35.38;;;3.60;92.10;;;;;;2072568;28;20026;-72
2020/12/10 01:52:12;;;;;;;82.13;35.80;;;3.60;92.00;;;;;;2073335;28;20056;-73
2020/12/10 01:53:13;;;;;;;79.95;35.88;;;3.60;92.00;;;;;;2073360;28;20072;-72
2020/12/10 01:54:13;;;;;;;74.90;34.75;;;3.60;92.00;;;;;;2072880;28;20105;-73
2020/12/10 01:55:14;;;;;;;73.63;34.08;;;3.60;91.90;;;;;;2072507;28;20504;-72
2020/12/10 01:56:16;;;;;;;75.85;34.90;;;3.60;91.90;;;;;;2073532;28;20030;-72
2020/12/10 01:57:17;;;;;;;77.20;34.60;;;3.70;91.90;;;;;;2073123;28;20014;-72
2020/12/10 01:58:18;;;;;;;77.57;34.88;;;3.70;91.90;;;;;;2073216;28;20037;-73
2020/12/10 01:59:19;;;;;;;73.60;34.10;;;3.70;91.70;;;;;;2072868;28;20041;-72
2020/12/10 02:00:20;;;;;;;73.65;33.95;;;3.70;91.60;;;;;;2072019;28;20026;-73
2020/12/10 02:01:21;;;;;;;72.65;33.60;;;3.70;91.70;;;;;;2072210;28;20452;-72
2020/12/10 02:02:22;;;;;;;75.40;33.15;;;3.70;91.70;;;;;;2072987;28;20049;-73
2020/12/10 02:03:23;;;;;;;75.85;34.13;;;3.70;91.60;;;;;;2073130;28;20073;-72
2020/12/10 02:04:27;;;;;;;71.35;33.33;;;3.70;91.60;;;;;;2072871;28;20501;-73
2020/12/10 02:05:27;;;;;;;70.85;33.45;;;3.70;91.70;;;;;;2072477;28;20096;-72
2020/12/10 02:06:28;;;;;;;73.88;33.78;;;3.70;91.70;;;;;;2072693;28;20504;-73
2020/12/10 02:07:29;;;;;;;71.57;32.70;;;3.70;91.60;;;;;;2072975;28;20022;-72
2020/12/10 02:08:30;;;;;;;75.55;34.15;;;3.70;91.70;;;;;;2073172;28;20033;-73
2020/12/10 02:09:31;;;;;;;71.82;33.78;;;3.60;91.60;;;;;;2072895;28;20057;-72
2020/12/10 02:10:32;;;;;;;74.05;33.85;;;3.70;91.70;;;;;;2073211;28;20038;-72
2020/12/10 02:11:32;;;;;;;73.10;32.92;;;3.60;91.70;;;;;;2072223;28;20405;-72
2020/12/10 02:12:33;;;;;;;70.60;33.17;;;3.70;91.60;;;;;;2073180;28;20105;-73
2020/12/10 02:13:34;;;;;;;71.38;33.40;;;3.60;91.50;;;;;;2073816;28;20034;-73
2020/12/10 02:14:37;;;;;;;76.40;34.45;;;3.70;91.60;;;;;;2073905;28;20112;-73
2020/12/10 02:15:37;;;;;;;70.88;32.40;;;3.60;91.60;;;;;;2074348;28;20034;-73
2020/12/10 02:16:38;;;;;;;76.35;34.38;;;3.60;91.60;;;;;;2074747;28;20026;-73
2020/12/10 02:17:39;;;;;;;74.00;33.28;;;3.70;91.60;;;;;;2065356;28;20813;-72
2020/12/10 02:18:40;;;;;;;71.47;33.38;;;3.70;91.60;;;;;;2064608;28;20494;-73
2020/12/10 02:19:40;;;;;;;71.85;33.97;;;3.70;91.50;;;;;;2072152;28;20030;-72
2020/12/10 02:20:42;;;;;;;70.78;33.47;;;3.70;91.50;;;;;;2072912;28;20022;-73
2020/12/10 02:21:43;;;;;;;74.93;33.58;;;3.70;91.50;;;;;;2073819;28;20029;-73
2020/12/10 02:22:43;;;;;;;67.97;30.98;;;3.70;91.50;;;;;;2073345;28;20105;-72
2020/12/10 02:23:44;;;;;;;68.82;32.75;;;3.70;91.60;;;;;;2072982;28;20014;-72
2020/12/10 02:24:45;;;;;;;72.22;33.95;;;3.70;91.60;;;;;;2072200;28;20030;-72
2020/12/10 02:25:45;;;;;;;71.68;32.85;;;3.60;91.60;;;;;;2072874;28;20053;-72
2020/12/10 02:26:46;;;;;;;74.82;34.28;;;3.60;91.50;;;;;;2072814;28;20132;-72
2020/12/10 02:27:47;;;;;;;68.75;32.78;;;3.60;91.50;;;;;;2072686;28;20397;-72
2020/12/10 02:28:48;;;;;;;73.13;34.30;;;3.60;91.60;;;;;;2071664;28;20033;-72
2020/12/10 02:29:49;;;;;;;74.72;33.53;;;3.60;91.60;;;;;;2063135;28;20049;-73
2020/12/10 02:30:49;;;;;;;71.03;33.25;;;3.60;91.50;;;;;;2072338;28;20030;-72
2020/12/10 02:31:50;;;;;;;71.05;32.50;;;3.60;91.60;;;;;;2072941;28;20022;-72
2020/12/10 02:32:59;;;;;;;72.32;33.42;;;3.60;91.60;;;;;;2072751;28;20029;-73
2020/12/10 02:34:07;;;;;;;70.45;33.03;;;3.60;91.70;;;;;;2072810;28;20492;-72
2020/12/10 02:35:08;;;;;;;78.78;34.13;;;3.60;91.60;;;;;;2072282;28;20038;-72
2020/12/10 02:36:08;;;;;;;73.70;33.63;;;3.60;91.60;;;;;;2072894;28;20500;-72
2020/12/10 02:37:09;;;;;;;73.28;33.63;;;3.60;91.50;;;;;;2073660;28;20505;-73
2020/12/10 02:38:11;;;;;;;74.95;34.40;;;3.60;91.50;;;;;;2073579;28;20026;-72
2020/12/10 02:39:12;;;;;;;74.35;34.03;;;3.60;91.50;;;;;;2073593;28;20097;-73
2020/12/10 02:40:13;;;;;;;73.72;34.08;;;3.60;91.60;;;;;;2074238;28;20496;-72
2020/12/10 02:41:14;;;;;;;71.93;32.92;;;3.60;91.60;;;;;;2074403;28;20033;-72
2020/12/10 02:42:15;;;;;;;71.15;31.95;;;3.60;91.60;;;;;;2074209;28;20396;-73
2020/12/10 02:43:16;;;;;;;73.10;34.03;;;3.60;91.60;;;;;;2074080;28;20057;-72
2020/12/10 02:44:16;;;;;;;74.72;33.38;;;3.60;92.00;;;;;;2073649;28;20084;-73
2020/12/10 02:45:19;;;;;;;72.50;33.45;;;3.60;91.80;;;;;;2073756;28;20037;-73
2020/12/10 02:46:19;;;;;;;74.43;33.97;;;3.60;91.70;;;;;;2073973;28;20029;-74
2020/12/10 02:47:20;;;;;;;75.13;34.17;;;3.60;91.70;;;;;;2074792;28;20345;-72
2020/12/10 02:48:21;;;;;;;74.85;34.25;;;3.60;91.70;;;;;;2074347;28;20446;-73
2020/12/10 02:49:22;;;;;;;70.57;32.95;;;3.60;91.60;;;;;;2073575;28;20095;-72
2020/12/10 02:50:22;;;;;;;69.18;33.17;;;3.60;91.70;;;;;;2073774;28;20025;-72
2020/12/10 02:51:23;;;;;;;71.25;32.22;;;3.60;91.80;;;;;;2074274;28;20040;-72
2020/12/10 02:52:24;;;;;;;70.50;31.80;;;3.60;91.70;;;;;;2074275;28;20076;-72
2020/12/10 02:53:24;;;;;;;76.35;34.17;;;3.60;91.70;;;;;;2074166;28;20546;-72
2020/12/10 02:54:25;;;;;;;74.13;33.35;;;3.60;91.70;;;;;;2074117;28;20040;-72
2020/12/10 02:55:26;;;;;;;74.80;32.33;;;3.60;91.60;;;;;;2074035;28;20101;-71
2020/12/10 02:56:26;;;;;;;69.97;32.00;;;3.60;91.70;;;;;;2074150;28;20030;-71
2020/12/10 02:57:27;;;;;;;65.28;31.33;;;3.60;91.70;;;;;;2074353;28;20053;-72
2020/12/10 02:58:28;;;;;;;69.88;33.30;;;3.60;91.70;;;;;;2073713;28;20026;-73
2020/12/10 02:59:28;;;;;;;75.05;33.85;;;3.70;91.70;;;;;;2073488;28;20132;-74
2020/12/10 03:00:29;;;;;;;70.05;32.88;;;3.70;91.70;;;;;;2081712;28;20029;-73
2020/12/10 03:01:35;;;;;;;74.97;33.78;;;3.70;91.60;;;;;;2081731;28;20017;-74
2020/12/10 03:02:36;;;;;;;74.20;33.70;;;3.70;91.60;;;;;;2081357;28;20022;-73
2020/12/10 03:03:38;;;;;;;73.82;34.17;;;3.70;91.50;;;;;;2073676;28;20048;-73
2020/12/10 03:04:38;;;;;;;77.55;33.88;;;3.70;91.50;;;;;;2073282;28;20428;-72
2020/12/10 03:05:39;;;;;;;69.25;32.30;;;3.70;91.60;;;;;;2073195;28;20029;-72
2020/12/10 03:06:40;;;;;;;71.80;32.92;;;3.70;91.70;;;;;;2074408;28;20030;-72
2020/12/10 03:07:40;;;;;;;79.43;34.80;;;3.70;91.70;;;;;;2074095;28;20022;-72
2020/12/10 03:08:41;;;;;;;75.93;34.38;;;3.70;91.70;;;;;;2074159;28;20358;-72
2020/12/10 03:09:43;;;;;;;80.95;36.38;;;3.70;91.50;;;;;;2073857;28;20420;-73
2020/12/10 03:10:44;;;;;;;78.50;34.53;;;3.70;91.40;;;;;;2073080;28;20033;-72
2020/12/10 03:11:44;;;;;;;74.97;34.85;;;3.70;91.50;;;;;;2073015;28;20041;-73
2020/12/10 03:12:45;;;;;;;77.80;34.83;;;3.60;91.50;;;;;;2073997;28;20034;-72
2020/12/10 03:13:46;;;;;;;74.90;34.03;;;3.60;91.50;;;;;;2073758;28;20026;-73
2020/12/10 03:14:46;;;;;;;83.15;35.45;;;3.60;91.60;;;;;;2073048;28;20113;-73
2020/12/10 03:15:47;;;;;;;81.88;36.40;;;3.60;91.60;;;;;;2073788;28;20029;-74
2020/12/10 03:16:48;;;;;;;80.75;35.72;;;3.60;91.60;;;;;;2073646;28;20045;-72
2020/12/10 03:17:49;;;;;;;78.82;35.25;;;3.60;91.60;;;;;;2073644;28;20018;-73
2020/12/10 03:18:50;;;;;;;77.72;35.05;;;3.60;91.60;;;;;;2074572;28;20033;-73
2020/12/10 03:19:51;;;;;;;79.43;35.50;;;3.60;91.70;;;;;;2074814;28;20053;-73
2020/12/10 03:20:52;;;;;;;75.72;33.65;;;3.60;91.70;;;;;;2067390;28;20089;-72
2020/12/10 03:21:53;;;;;;;78.95;35.22;;;3.60;91.70;;;;;;2075533;28;20022;-73
2020/12/10 03:22:54;;;;;;;82.70;36.65;;;3.60;91.70;;;;;;2084567;28;20017;-73
2020/12/10 03:23:54;;;;;;;76.78;34.80;;;3.60;91.70;;;;;;2067467;28;20026;-72
2020/12/10 03:24:55;;;;;;;78.82;35.55;;;3.60;91.70;;;;;;2064807;28;20069;-73
2020/12/10 03:25:56;;;;;;;79.57;35.40;;;3.60;91.80;;;;;;2081320;28;20032;-73
2020/12/10 03:26:56;;;;;;;76.20;33.83;;;3.60;91.80;;;;;;2074018;28;20117;-72
2020/12/10 03:27:57;;;;;;;76.78;34.05;;;3.60;91.80;;;;;;2073295;28;20120;-73
2020/12/10 03:28:58;;;;;;;77.72;34.70;;;3.60;91.80;;;;;;2065273;28;20042;-73
2020/12/10 03:29:59;;;;;;;75.10;33.97;;;3.60;91.80;;;;;;2064572;28;20044;-74
2020/12/10 03:31:00;;;;;;;78.85;35.20;;;3.60;91.80;;;;;;2072998;28;20026;-73
2020/12/10 03:32:01;;;;;;;79.15;35.90;;;3.60;91.80;;;;;;2073291;28;20064;-73
2020/12/10 03:33:02;;;;;;;79.72;34.53;;;3.60;91.80;;;;;;2073894;28;20048;-73
2020/12/10 03:34:06;;;;;;;77.05;34.47;;;3.60;91.80;;;;;;2073722;28;20105;-72
2020/12/10 03:35:07;;;;;;;74.30;34.38;;;3.60;91.70;;;;;;2073484;28;20041;-73
2020/12/10 03:36:08;;;;;;;76.90;34.75;;;3.60;91.70;;;;;;2073783;28;20061;-72
2020/12/10 03:37:09;;;;;;;75.03;34.22;;;3.60;91.80;;;;;;2073969;28;20496;-73
2020/12/10 03:38:09;;;;;;;76.57;33.85;;;3.60;91.80;;;;;;2065310;28;20030;-73
2020/12/10 03:39:10;;;;;;;79.88;35.33;;;3.60;91.90;;;;;;2064720;28;20022;-73
2020/12/10 03:40:11;;;;;;;81.85;35.92;;;3.60;91.80;;;;;;2072461;28;20170;-72
2020/12/10 03:41:11;;;;;;;78.07;35.40;;;3.60;91.80;;;;;;2073142;28;20026;-73
2020/12/10 03:42:12;;;;;;;83.85;37.08;;;3.60;91.70;;;;;;2073348;28;20053;-72
2020/12/10 03:43:13;;;;;;;84.75;36.80;;;3.50;91.70;;;;;;2064994;28;20026;-74
2020/12/10 03:44:14;;;;;;;76.97;35.90;;;3.50;91.70;;;;;;2073086;28;20029;-72
2020/12/10 03:45:15;;;;;;;74.88;34.80;;;3.50;91.80;;;;;;2073181;28;20116;-73
2020/12/10 03:46:15;;;;;;;77.60;34.60;;;3.50;91.90;;;;;;2073004;28;20041;-73
2020/12/10 03:47:16;;;;;;;73.72;34.13;;;3.50;92.00;;;;;;2072753;28;20025;-73
2020/12/10 03:48:17;;;;;;;79.22;35.13;;;3.50;92.00;;;;;;2064606;28;20125;-72
2020/12/10 03:49:18;;;;;;;77.90;35.17;;;3.50;92.00;;;;;;2073067;28;20106;-73
2020/12/10 03:50:19;;;;;;;81.80;35.45;;;3.50;92.00;;;;;;2072562;28;20656;-72
2020/12/10 03:51:19;;;;;;;75.22;35.10;;;3.50;92.00;;;;;;2073052;28;20118;-73
2020/12/10 03:52:20;;;;;;;76.90;33.92;;;3.50;92.00;;;;;;2073230;28;20124;-73
2020/12/10 03:53:21;;;;;;;83.72;37.08;;;3.50;92.00;;;;;;2081181;28;20694;-72
2020/12/10 03:54:22;;;;;;;80.32;35.45;;;3.50;92.00;;;;;;2081020;28;20041;-72
2020/12/10 03:55:23;;;;;;;80.10;35.60;;;3.50;91.90;;;;;;2072968;28;20092;-72
2020/12/10 03:56:24;;;;;;;80.20;36.10;;;3.50;91.90;;;;;;2064655;28;20425;-73
2020/12/10 03:57:25;;;;;;;77.20;34.90;;;3.50;91.90;;;;;;2072837;28;20080;-72
2020/12/10 04:00:22;;;;;;;83.93;35.35;;;3.60;91.90;;;;;;2073383;28;20124;-73
2020/12/10 04:01:23;;;;;;;80.53;35.05;;;3.60;91.90;;;;;;2073635;28;20025;-72
2020/12/10 04:02:23;;;;;;;80.43;36.88;;;3.50;91.90;;;;;;2073123;28;20037;-71
2020/12/10 04:03:24;;;;;;;83.85;36.65;;;3.50;91.90;;;;;;2072939;28;20088;-73
2020/12/10 04:04:25;;;;;;;83.90;36.88;;;3.50;91.90;;;;;;2072779;28;20125;-73
2020/12/10 04:05:26;;;;;;;84.40;36.88;;;3.50;91.80;;;;;;2071920;28;20038;-72
2020/12/10 04:06:27;;;;;;;83.78;35.78;;;3.50;91.80;;;;;;2073126;28;20036;-73
2020/12/10 04:07:28;;;;;;;83.03;37.30;;;3.50;91.90;;;;;;2056890;28;20034;-73
2020/12/10 04:08:29;;;;;;;83.50;37.25;;;3.50;91.80;;;;;;2064763;28;20053;-73
2020/12/10 04:09:30;;;;;;;85.80;36.83;;;3.50;91.80;;;;;;2064837;28;20502;-72
2020/12/10 04:10:30;;;;;;;84.63;36.85;;;3.50;91.90;;;;;;2064937;28;20068;-71
2020/12/10 04:11:31;;;;;;;74.50;35.53;;;3.50;91.80;;;;;;2073689;28;20026;-73
2020/12/10 04:12:32;;;;;;;81.65;35.95;;;3.50;92.00;;;;;;2073752;28;20538;-74
2020/12/10 04:13:32;;;;;;;87.18;37.03;;;3.50;92.00;;;;;;2072760;28;20022;-71
2020/12/10 04:14:33;;;;;;;78.45;36.08;;;3.50;92.00;;;;;;2064753;28;20027;-71
2020/12/10 04:15:34;;;;;;;81.05;36.03;;;3.50;92.10;;;;;;2072830;28;20505;-72
2020/12/10 04:16:34;;;;;;;82.72;36.35;;;3.50;92.10;;;;;;2080965;28;20117;-73
2020/12/10 04:17:35;;;;;;;86.43;38.55;;;3.50;92.10;;;;;;2081160;28;20013;-73
2020/12/10 04:18:38;;;;;;;84.25;37.15;;;3.50;92.00;;;;;;2073766;28;20519;-73
2020/12/10 04:19:38;;;;;;;83.95;36.70;;;3.50;92.00;;;;;;2073221;28;20029;-74
2020/12/10 04:20:39;;;;;;;83.25;36.55;;;3.50;92.00;;;;;;2073607;28;20513;-73
2020/12/10 04:21:40;;;;;;;84.35;37.05;;;3.50;91.90;;;;;;2073552;28;20049;-73
2020/12/10 04:22:40;;;;;;;83.05;37.55;;;3.50;91.90;;;;;;2073457;28;20049;-74
2020/12/10 04:23:41;;;;;;;87.72;36.72;;;3.50;92.00;;;;;;2073474;28;20105;-71
2020/12/10 04:24:42;;;;;;;87.80;38.47;;;3.50;92.00;;;;;;2072646;28;20037;-71
2020/12/10 04:25:42;;;;;;;85.38;37.47;;;3.50;92.00;;;;;;2073045;28;20022;-71
2020/12/10 04:26:43;;;;;;;82.95;36.88;;;3.50;92.00;;;;;;2072846;28;20040;-71
2020/12/10 04:27:44;;;;;;;89.78;38.05;;;3.50;92.00;;;;;;2072954;28;20026;-71
2020/12/10 04:28:45;;;;;;;85.30;37.33;;;3.50;92.10;;;;;;2073745;28;20435;-71
2020/12/10 04:29:45;;;;;;;85.57;37.78;;;3.50;92.00;;;;;;2072086;28;20049;-71
2020/12/10 04:30:46;;;;;;;88.53;38.22;;;3.50;92.00;;;;;;2072927;28;20088;-72
2020/12/10 04:31:47;;;;;;;85.85;38.08;;;3.50;92.00;;;;;;2073176;28;20507;-71
2020/12/10 04:32:48;;;;;;;82.75;36.88;;;3.50;92.00;;;;;;2072981;28;20038;-73
2020/12/10 04:33:49;;;;;;;90.95;39.38;;;3.50;92.00;;;;;;2073106;28;20018;-71
2020/12/10 04:34:50;;;;;;;86.60;37.47;;;3.40;92.10;;;;;;2074015;28;20102;-71
2020/12/10 04:35:50;;;;;;;87.32;37.30;;;3.40;92.10;;;;;;2076674;28;20343;-71
2020/12/10 04:36:51;;;;;;;86.72;39.20;;;3.40;92.10;;;;;;2076544;28;20026;-72
2020/12/10 04:37:52;;;;;;;84.25;37.33;;;3.40;92.10;;;;;;2075567;28;20037;-73
2020/12/10 04:38:53;;;;;;;88.78;39.08;;;3.40;92.20;;;;;;2074102;28;20050;-73
2020/12/10 04:39:53;;;;;;;85.85;38.53;;;3.40;92.20;;;;;;2072357;28;20096;-74
2020/12/10 04:40:54;;;;;;;88.07;38.28;;;3.40;92.20;;;;;;2073143;28;20065;-72
2020/12/10 04:41:55;;;;;;;82.28;37.33;;;3.40;92.20;;;;;;2073582;28;20026;-72
2020/12/10 04:42:56;;;;;;;85.35;37.00;;;3.40;92.30;;;;;;2072960;28;20022;-72
2020/12/10 04:43:57;;;;;;;81.68;36.40;;;3.40;92.40;;;;;;2072745;28;20539;-73
2020/12/10 04:44:58;;;;;;;85.47;36.65;;;3.40;92.40;;;;;;2072703;28;20022;-73
2020/12/10 04:46:02;;;;;;;86.88;38.05;;;3.40;92.40;;;;;;2064797;28;20505;-72
2020/12/10 04:47:03;;;;;;;90.82;38.65;;;3.40;92.40;;;;;;2072654;28;20663;-72
2020/12/10 04:48:04;;;;;;;84.43;38.03;;;3.40;92.50;;;;;;2064455;28;20034;-73
2020/12/10 04:49:05;;;;;;;88.57;38.58;;;3.40;92.60;;;;;;2072572;28;20488;-72
2020/12/10 04:50:15;;;;;;;83.25;37.08;;;3.30;92.40;;;;;;2073361;28;20531;-72
2020/12/10 04:51:16;;;;;;;82.35;35.50;;;3.30;92.50;;;;;;2073594;28;20058;-72
2020/12/10 04:52:18;;;;;;;81.30;36.22;;;3.30;92.60;;;;;;2073596;28;20481;-72
2020/12/10 04:53:20;;;;;;;82.40;37.28;;;3.30;92.70;;;;;;2073677;28;20429;-72
2020/12/10 04:54:21;;;;;;;90.00;37.60;;;3.30;92.70;;;;;;2073424;28;20041;-72
2020/12/10 04:55:23;;;;;;;84.97;38.00;;;3.30;92.60;;;;;;2073513;28;20042;-72
2020/12/10 04:56:23;;;;;;;84.55;36.78;;;3.30;92.60;;;;;;2072991;28;20432;-73
2020/12/10 04:57:29;;;;;;;85.65;37.85;;;3.30;92.60;;;;;;2072698;28;20037;-73
2020/12/10 04:58:30;;;;;;;82.50;37.28;;;3.30;92.60;;;;;;2072787;28;20094;-72
2020/12/10 04:59:30;;;;;;;83.90;36.42;;;3.30;92.70;;;;;;2073614;28;20028;-72
2020/12/10 05:00:31;;;;;;;81.03;35.95;;;3.20;92.70;;;;;;2073881;28;20022;-73
2020/12/10 05:01:32;;;;;;;82.72;36.97;;;3.20;92.80;;;;;;2073608;28;20038;-73
2020/12/10 05:02:33;;;;;;;88.32;37.80;;;3.20;92.80;;;;;;2073932;28;20030;-72
2020/12/10 05:03:33;;;;;;;82.63;35.92;;;3.20;92.80;;;;;;2073824;28;20073;-72
2020/12/10 05:04:34;;;;;;;85.55;37.72;;;3.20;92.80;;;;;;2072834;28;20029;-74
2020/12/10 05:05:35;;;;;;;84.65;37.75;;;3.20;92.80;;;;;;2072632;28;20026;-73
2020/12/10 05:06:47;;;;;;;85.00;37.65;;;3.10;92.80;;;;;;2073643;28;20070;-72
2020/12/10 05:07:48;;;;;;;79.18;35.92;;;3.10;93.30;;;;;;2073191;28;20119;-73
2020/12/10 05:08:49;;;;;;;80.13;36.00;;;3.10;93.00;;;;;;2064664;28;20445;-73
2020/12/10 05:09:57;;;;;;;86.38;37.17;;;3.10;93.50;;;;;;2073198;28;20544;-73
2020/12/10 05:10:59;;;;;;;85.40;38.60;;;3.10;93.20;;;;;;2074152;28;20053;-73
2020/12/10 05:12:00;;;;;;;87.90;37.80;;;3.10;93.20;;;;;;2074356;28;20030;-73
2020/12/10 05:13:09;;;;;;;84.45;37.70;;;3.00;93.10;;;;;;2074592;28;20113;-72
2020/12/10 05:14:10;;;;;;;88.00;38.13;;;3.00;93.10;;;;;;2074328;28;20033;-72
2020/12/10 05:15:12;;;;;;;83.90;36.22;;;3.00;93.20;;;;;;2073924;28;20018;-73
2020/12/10 05:16:22;;;;;;;84.43;36.70;;;3.00;93.20;;;;;;2073568;28;20032;-73